Sagna, Romania

1:31 PM EEST on June 21, 2018 (GMT +0300)
Iasi | | Change Station

Elev 341 ft 47.17 °N, 27.63 °E | Updated 31 minutes ago

Partly Cloudy
Partly Cloudy
84 °F
Feels Like 85 °F
N
5
Wind Variable Wind from Variable

Today
High -- | Low -- °F
--% Chance of Precip.
Yesterday
High -- | Low -- °F
Precip. -- in
Pressure 30.01 in
Visibility 6.2 miles
Clouds Few 4800 ft
Heat Index 85 °F
Dew Point 63 °F
Humidity 48%
Rainfall 0.00 in
Snow Depth Not available.
5:16 AM 9:10 PM
First Quarter, 61% visible
METAR LRIA 211000Z VRB04KT 9999 FEW048 29/17 Q1016
Pressure 30.01 in
Visibility 6.2 miles
Clouds Few 4800 ft
Heat Index 85 °F
Dew Point 63 °F
Humidity 48%
Rainfall 0.00 in
Snow Depth Not available.
5:16 AM 9:10 PM
First Quarter, 61% visible
METAR LRIA 211000Z VRB04KT 9999 FEW048 29/17 Q1016

Get Severe Weather Alerts

Thanks for signing up!

Be on the lookout for a verification email in your inbox.

You'll start receiving the daily forecast at 6 AM.

×

10-Day Weather Forecast

×

Almanac

Astronomy

Jun. 21, 2018 Rise Set
Actual Time
Civil Twilight
Nautical Twilight
Astronomical Twilight
Moon
Length of Visible Light
Length of Day
Tomorrow will be .
, % of the Moon is Illuminated

Today's Extremes

Country Highs Country Lows

Community

WunderPhotos

Category 6

Welcome to Category 6. This is the collective home for Weather Underground's featured writeups by Dr. Jeff Masters (right), Bob Henson (left), Chris Burt, and other regular contributors.

Nearby

Air Quality

  Air Quality AQ Index Pollutant
Not available.

Snow Depth

Station Depth Elevation

Earthquake Activity

City Distance Mag. Time & Date
Minimum magnitude displayed is 2.5.

Coastal Water Temperatures

Place Temperature

Stations

Nearby Weather Stations

Station Location Temp. Windchill Dew Point Humidity Wind Precip. Elev Updated Type